CheckWX is a tool to help pilots better visualize weather data.  It is not intended as a substitute for an official pre-flight weather briefing.

08:44:22 UTC

KAOO METAR
Altoona-Blair County Airport
Altoona, Pennsylvania, USA
Current

51 mins ago

KAOO 180753Z AUTO 32014G20KT 10SM BKN022 OVC027 07/02 A2989 RMK AO2 SLP128 T00670017
Observed
Oct-18 @ 07:53 UTC
Wind
  • 320° at 14 KTS
  • Gusting to 20 KTS
Visibility
10 SM
Flight Rules
MVFR
Cloud Levels
  • Broken at 2,200' AGL
  • Overcast at 2,700' AGL
Temperature
C / 45°F
Dewpoint
C / 36°F
Humidity
71%
Altimeter
29.89" Hg
Pressure
1012.22 hPa
Previous

2 hours ago

KAOO 180653Z AUTO 32011G21KT 10SM BKN024 OVC030 07/02 A2988 RMK AO2 SLP125 T00670017
Observed
Oct-18 @ 06:53 UTC
Wind
  • 320° at 11 KTS
  • Gusting to 21 KTS
Visibility
10 SM
Flight Rules
MVFR
Cloud Levels
  • Broken at 2,400' AGL
  • Overcast at 3,000' AGL
Temperature
C / 45°F
Dewpoint
C / 36°F
Humidity
71%
Altimeter
29.88" Hg
Pressure
1011.82 hPa
Previous

3 hours ago

KAOO 180553Z AUTO 33008G16KT 10SM BKN021 OVC026 07/02 A2987 RMK AO2 SLP123 T00670022 10078 20061 53006
Observed
Oct-18 @ 05:53 UTC
Wind
  • 330° at 8 KTS
  • Gusting to 16 KTS
Visibility
10 SM
Flight Rules
MVFR
Cloud Levels
  • Broken at 2,100' AGL
  • Overcast at 2,600' AGL
Temperature
C / 45°F
Dewpoint
C / 36°F
Humidity
71%
Altimeter
29.87" Hg
Pressure
1011.52 hPa